createdAt,value
2018-08-04T00:01:10.864Z,20.2
2018-08-04T00:06:41.748Z,20.2
2018-08-04T00:12:17.852Z,20.2
2018-08-04T00:17:42.600Z,20.2
2018-08-04T00:23:18.580Z,20.2
2018-08-04T00:28:44.415Z,20.1
2018-08-04T00:34:19.423Z,20.1
2018-08-04T00:39:45.236Z,20.1
2018-08-04T00:45:15.210Z,20.1
2018-08-04T00:50:45.093Z,20.1
2018-08-04T00:50:45.511Z,20.1
2018-08-04T00:56:15.335Z,20.1
2018-08-04T01:01:44.941Z,20.1
2018-08-04T01:01:45.439Z,20.1
2018-08-04T01:07:15.973Z,20
2018-08-04T01:07:16.911Z,20
2018-08-04T01:12:45.731Z,20
2018-08-04T01:18:16.633Z,20
2018-08-04T01:23:51.624Z,20
2018-08-04T01:29:17.622Z,19.9
2018-08-04T01:34:47.356Z,20
2018-08-04T01:40:18.257Z,20
2018-08-04T01:40:22.794Z,20
2018-08-04T01:45:53.076Z,20
2018-08-04T01:51:18.953Z,20
2018-08-04T01:56:50.234Z,20
2018-08-04T01:56:51.450Z,20
2018-08-04T02:02:19.731Z,20
2018-08-04T02:07:50.630Z,19.9
2018-08-04T02:13:20.823Z,19.9
2018-08-04T02:18:50.459Z,19.8
2018-08-04T02:24:21.289Z,19.7
2018-08-04T02:29:52.287Z,19.6
2018-08-04T02:35:23.099Z,19.6
2018-08-04T02:40:52.768Z,19.6
2018-08-04T02:46:22.608Z,19.6
2018-08-04T02:51:53.511Z,19.5
2018-08-04T02:57:28.406Z,19.4
2018-08-04T03:02:53.332Z,19.4
2018-08-04T03:08:24.006Z,19.3
2018-08-04T03:13:53.865Z,19.3
2018-08-04T03:19:23.624Z,19.3
2018-08-04T03:24:54.541Z,19.2
2018-08-04T03:30:30.419Z,19.2
2018-08-04T03:35:56.047Z,19.1
2018-08-04T03:41:25.856Z,19
2018-08-04T03:46:56.794Z,19
2018-08-04T03:52:26.396Z,19
2018-08-04T03:57:57.082Z,19
2018-08-04T04:03:27.862Z,19
2018-08-04T04:08:58.572Z,19
2018-08-04T04:14:29.419Z,19
2018-08-04T04:19:59.571Z,19
2018-08-04T04:25:29.216Z,19
2018-08-04T04:30:59.783Z,19
2018-08-04T04:36:29.476Z,19
2018-08-04T04:42:05.353Z,19
2018-08-04T04:47:29.954Z,19
2018-08-04T04:53:00.748Z,19.1
2018-08-04T04:58:30.500Z,19.1
2018-08-04T05:04:00.317Z,18.9
2018-08-04T05:09:30.004Z,18.8
2018-08-04T05:15:05.831Z,18.9
2018-08-04T05:20:30.537Z,19
2018-08-04T05:26:00.308Z,19.1
2018-08-04T05:31:31.099Z,19
2018-08-04T05:37:00.859Z,19
2018-08-04T05:42:30.619Z,19.1
2018-08-04T05:42:31.301Z,19.1
2018-08-04T05:48:00.390Z,19.1
2018-08-04T05:53:36.218Z,19.1
2018-08-04T05:59:00.975Z,19.2
2018-08-04T06:04:30.767Z,19.4
2018-08-04T06:10:01.637Z,19.6
2018-08-04T06:15:37.630Z,19.8
2018-08-04T06:21:02.344Z,19.8
2018-08-04T06:26:33.173Z,19.9
2018-08-04T06:32:03.148Z,20.1
2018-08-04T06:37:39.060Z,20.3
2018-08-04T06:43:03.876Z,20.5
2018-08-04T06:48:38.981Z,20.7
2018-08-04T06:54:04.463Z,20.9
2018-08-04T06:59:34.773Z,21.1
2018-08-04T07:05:04.794Z,21.3
2018-08-04T07:10:35.885Z,21.8
2018-08-04T07:16:05.985Z,22.2
2018-08-04T07:21:36.505Z,22.3
2018-08-04T07:27:12.269Z,22.3
2018-08-04T07:32:38.646Z,22.4
2018-08-04T07:38:09.070Z,22.6
2018-08-04T07:43:38.947Z,22.6
2018-08-04T07:49:08.969Z,22.7
2018-08-04T07:54:40.266Z,22.7
2018-08-04T08:00:10.347Z,22.6
2018-08-04T08:05:40.665Z,22.4
2018-08-04T08:11:11.588Z,22.4
2018-08-04T08:16:47.903Z,22.6
2018-08-04T08:22:12.830Z,22.7
2018-08-04T08:27:43.076Z,22.7
2018-08-04T08:33:18.486Z,22.6
2018-08-04T08:38:44.867Z,22.7
2018-08-04T08:44:14.606Z,23
2018-08-04T08:55:15.052Z,23.6
2018-08-04T09:00:45.360Z,23.4
2018-08-04T09:06:15.541Z,23.1
2018-08-04T09:11:46.757Z,22.8
2018-08-04T09:17:17.220Z,22.6
2018-08-04T09:22:47.088Z,22.8
2018-08-04T09:28:23.575Z,23.1
2018-08-04T09:33:54.646Z,23.3
2018-08-04T09:39:21.070Z,23.4
2018-08-04T09:44:51.181Z,23.7
2018-08-04T09:50:21.848Z,24.2
2018-08-04T09:55:52.959Z,24.5
2018-08-04T10:01:28.746Z,24.7
2018-08-04T10:06:54.798Z,24.4
2018-08-04T10:12:25.040Z,24.2
2018-08-04T10:17:55.682Z,24.4
2018-08-04T10:17:57.091Z,24.4
2018-08-04T10:23:26.945Z,24.5
2018-08-04T10:23:27.356Z,24.5
2018-08-04T10:28:58.248Z,24.3
2018-08-04T10:34:28.850Z,24.3
2018-08-04T10:40:04.198Z,24.3
2018-08-04T10:45:29.319Z,24.4
2018-08-04T10:51:01.476Z,24.6
2018-08-04T10:56:36.274Z,24.9
2018-08-04T11:02:01.643Z,25.1
2018-08-04T11:07:32.432Z,25.1
2018-08-04T11:13:07.710Z,25.1
2018-08-04T11:18:39.186Z,25.1
2018-08-04T11:24:05.701Z,24.8
2018-08-04T11:29:35.952Z,24.5
2018-08-04T11:35:07.352Z,24.7
2018-08-04T11:40:38.106Z,25
2018-08-04T11:46:09.328Z,24.9
2018-08-04T11:51:40.012Z,24.9
2018-08-04T11:57:10.237Z,24.9
2018-08-04T12:02:46.835Z,24.6
2018-08-04T12:08:12.032Z,24.5
2018-08-04T12:13:43.589Z,24.8
2018-08-04T12:19:19.969Z,25.3
2018-08-04T12:24:46.878Z,25.5
2018-08-04T12:30:17.029Z,25.6
2018-08-04T12:35:47.568Z,25.4
2018-08-04T12:41:19.105Z,25.2
2018-08-04T12:46:49.608Z,25.3
2018-08-04T12:52:20.101Z,25.3
2018-08-04T12:57:51.586Z,25.4
2018-08-04T13:03:27.266Z,25.4
2018-08-04T13:08:52.909Z,25.4
2018-08-04T13:14:23.175Z,25.4
2018-08-04T13:19:54.407Z,25.3
2018-08-04T13:25:25.239Z,25.3
2018-08-04T13:30:56.743Z,25.3
2018-08-04T13:36:33.271Z,25.3
2018-08-04T13:41:59.819Z,25
2018-08-04T13:47:31.181Z,24.9
2018-08-04T13:53:07.609Z,24.9
2018-08-04T13:58:39.349Z,24.9
2018-08-04T14:04:05.587Z,25
2018-08-04T14:09:36.315Z,25.1
2018-08-04T14:15:06.535Z,25.2
2018-08-04T14:20:43.315Z,25.2
2018-08-04T14:26:09.512Z,24.9
2018-08-04T14:31:40.932Z,24.7
2018-08-04T14:37:11.506Z,24.6
2018-08-04T14:42:41.794Z,24.6
2018-08-04T14:48:13.372Z,24.6
2018-08-04T14:53:44.642Z,24.6
2018-08-04T14:59:20.090Z,24.7
2018-08-04T15:04:45.861Z,24.7
2018-08-04T15:10:16.957Z,24.5
2018-08-04T15:15:53.578Z,24.4
2018-08-04T15:21:23.745Z,24.2
2018-08-04T15:26:50.167Z,24.1
2018-08-04T15:32:25.652Z,24
2018-08-04T15:37:55.818Z,23.8
2018-08-04T15:43:21.048Z,23.7
2018-08-04T15:48:51.445Z,23.6
2018-08-04T15:54:22.686Z,23.5
2018-08-04T15:59:54.009Z,23.4
2018-08-04T16:05:24.236Z,23.3
2018-08-04T16:10:54.935Z,23.3
2018-08-04T16:16:24.977Z,23.2
2018-08-04T16:22:01.045Z,23
2018-08-04T16:27:26.576Z,22.9
2018-08-04T16:33:01.476Z,22.8
2018-08-04T16:38:27.994Z,22.7
2018-08-04T16:43:58.321Z,22.6
2018-08-04T16:49:27.940Z,22.5
2018-08-04T16:54:58.333Z,22.5
2018-08-04T17:00:29.269Z,22.5
2018-08-04T17:06:04.544Z,22.5
2018-08-04T17:11:35.865Z,22.5
2018-08-04T17:17:01.794Z,22.5
2018-08-04T17:22:31.954Z,22.6
2018-08-04T17:28:07.137Z,22.6
2018-08-04T17:33:37.380Z,22.5
2018-08-04T17:39:03.520Z,22.5
2018-08-04T17:44:34.663Z,22.4
2018-08-04T17:50:04.848Z,22.4
2018-08-04T17:55:35.882Z,22.3
2018-08-04T18:01:12.056Z,22.1
2018-08-04T18:06:43.118Z,22.1
2018-08-04T18:12:08.236Z,22
2018-08-04T18:17:43.394Z,21.8
2018-08-04T18:23:18.467Z,21.7
2018-08-04T18:23:18.488Z,21.7
2018-08-04T18:28:45.120Z,21.6
2018-08-04T18:28:45.673Z,21.6
2018-08-04T18:34:09.800Z,21.5
2018-08-04T18:39:39.561Z,21.5
2018-08-04T18:45:10.818Z,21.4
2018-08-04T18:50:40.622Z,21.3
2018-08-04T18:56:10.662Z,21.3
2018-08-04T19:01:41.968Z,21.3
2018-08-04T19:07:11.931Z,21.2
2018-08-04T19:12:41.653Z,21.1
2018-08-04T19:18:11.709Z,21
2018-08-04T19:23:42.614Z,21
2018-08-04T19:29:13.795Z,20.8
2018-08-04T19:34:43.619Z,20.7
2018-08-04T19:40:20.058Z,20.5
2018-08-04T19:45:44.434Z,20.4
2018-08-04T19:51:15.232Z,20.3
2018-08-04T19:56:45.137Z,20.3
2018-08-04T20:02:16.324Z,20.2
2018-08-04T20:07:47.220Z,20.2
2018-08-04T20:13:23.067Z,20.2
2018-08-04T20:18:48.667Z,20.1
2018-08-04T20:24:19.555Z,20.1
2018-08-04T20:29:50.708Z,20
2018-08-04T20:35:21.275Z,19.9
2018-08-04T20:40:51.143Z,19.8
2018-08-04T20:46:22.367Z,19.7
2018-08-04T20:51:52.805Z,19.6
2018-08-04T20:57:22.589Z,19.5
2018-08-04T21:02:58.462Z,19.5
2018-08-04T21:08:29.485Z,19.4
2018-08-04T21:13:55.856Z,19.4
2018-08-04T21:14:00.302Z,19.4
2018-08-04T21:19:26.048Z,19.3
2018-08-04T21:24:55.556Z,19.3
2018-08-04T21:30:30.408Z,19.3
2018-08-04T21:35:56.546Z,19.2
2018-08-04T21:41:31.225Z,19.2
2018-08-04T21:46:56.983Z,19.1
2018-08-04T21:52:25.459Z,18.9
2018-08-04T21:58:00.383Z,18.8
2018-08-04T22:03:25.802Z,18.7
2018-08-04T22:08:56.646Z,18.6
2018-08-04T22:14:26.325Z,18.5
2018-08-04T22:20:01.344Z,18.4
2018-08-04T22:25:26.855Z,18.4
2018-08-04T22:31:01.716Z,18.2
2018-08-04T22:36:26.105Z,18.2
2018-08-04T22:41:56.812Z,18.2
2018-08-04T22:47:27.474Z,18.1
2018-08-04T22:52:58.170Z,18.2
2018-08-04T22:58:32.887Z,18.1
2018-08-04T23:03:58.748Z,18.1
2018-08-04T23:09:29.160Z,18
2018-08-04T23:14:59.828Z,18
2018-08-04T23:20:35.918Z,18
2018-08-04T23:26:05.336Z,17.9
2018-08-04T23:31:29.825Z,17.8
2018-08-04T23:36:59.619Z,17.7
2018-08-04T23:42:30.117Z,17.6
2018-08-04T23:48:04.969Z,17.6
2018-08-04T23:53:30.332Z,17.5
2018-08-04T23:59:01.278Z,17.4
